Time;durP1;ratioP1;P1;durP2;ratioP2;P2;SDS_P1;SDS_P2;PMS_P1;PMS_P2;Temp;Humidity;BMP_temperature;BMP_pressure;BME280_temperature;BME280_humidity;BME280_pressure;Samples;Min_cycle;Max_cycle;Signal;HPM_P1;HPM_P2
2022/12/14 00:01:26;;;;;;;60.95;32.40;;;-4.10;99.90;;;;;;6210230;23;20047;-78
2022/12/14 00:03:53;;;;;;;62.63;31.63;;;-3.90;99.90;;;;;;6207636;23;20052;-78
2022/12/14 00:06:24;;;;;;;60.17;32.30;;;-4.10;99.90;;;;;;6185987;23;20027;-79
2022/12/14 00:08:52;;;;;;;66.03;32.95;;;-4.00;99.90;;;;;;6183040;23;20009;-80
2022/12/14 00:11:24;;;;;;;64.25;32.33;;;-4.20;99.90;;;;;;6184927;23;20044;-79
2022/12/14 00:14:01;;;;;;;67.93;34.22;;;-4.30;99.90;;;;;;6211657;23;20009;-78
2022/12/14 00:16:29;;;;;;;58.10;31.95;;;-4.00;99.90;;;;;;6188546;23;20020;-80
2022/12/14 00:18:57;;;;;;;63.83;33.85;;;-4.10;99.90;;;;;;6190542;23;20117;-79
2022/12/14 00:21:23;;;;;;;61.08;31.95;;;-4.40;99.90;;;;;;6215496;23;20470;-79
2022/12/14 00:23:50;;;;;;;62.90;32.13;;;-4.30;99.90;;;;;;6187520;23;20016;-78
2022/12/14 00:26:17;;;;;;;61.35;31.38;;;-4.40;99.90;;;;;;6189427;23;20013;-81
2022/12/14 00:28:44;;;;;;;60.92;31.13;;;-4.50;99.90;;;;;;6190485;23;20021;-81
2022/12/14 00:31:10;;;;;;;62.63;31.63;;;-4.40;99.90;;;;;;6215826;23;20324;-78
2022/12/14 00:33:55;;;;;;;65.97;32.80;;;-4.50;99.90;;;;;;6215578;23;20020;-78
2022/12/14 00:36:22;;;;;;;58.13;31.20;;;-4.50;99.90;;;;;;6189550;23;20019;-78
2022/12/14 00:38:48;;;;;;;58.25;31.23;;;-4.70;99.90;;;;;;6214591;23;20024;-77
2022/12/14 00:41:13;;;;;;;58.25;30.55;;;-4.50;99.90;;;;;;6187597;23;20024;-77
2022/12/14 00:43:39;;;;;;;59.22;31.17;;;-4.60;99.90;;;;;;6214440;23;20504;-81
2022/12/14 00:46:05;;;;;;;60.53;31.27;;;-4.80;99.90;;;;;;6215572;23;20062;-76
2022/12/14 00:48:31;;;;;;;61.83;31.42;;;-4.80;99.90;;;;;;6195605;23;20019;-79
2022/12/14 00:51:35;;;;;;;63.92;30.42;;;-4.50;99.90;;;;;;6216707;23;20092;-79
2022/12/14 00:54:00;;;;;;;57.88;30.63;;;-4.90;99.90;;;;;;6190585;23;20317;-79
2022/12/14 00:56:26;;;;;;;61.63;32.03;;;-4.60;99.90;;;;;;6189483;23;20017;-78
2022/12/14 00:58:52;;;;;;;58.08;31.20;;;-4.70;99.90;;;;;;6190682;23;20107;-79
2022/12/14 01:01:19;;;;;;;65.95;31.42;;;-4.90;99.90;;;;;;6191099;23;20012;-79
2022/12/14 01:04:21;;;;;;;61.05;31.00;;;-4.80;99.90;;;;;;6216181;23;20020;-78
2022/12/14 01:06:49;;;;;;;65.60;30.35;;;-5.00;99.90;;;;;;6190791;23;20048;-77
2022/12/14 01:09:15;;;;;;;64.22;30.73;;;-4.90;99.90;;;;;;6215954;23;20015;-82
2022/12/14 01:11:42;;;;;;;58.08;30.38;;;-5.00;99.90;;;;;;6217126;23;20008;-79
2022/12/14 01:14:09;;;;;;;62.35;31.40;;;-5.00;99.90;;;;;;6191791;23;20008;-77
2022/12/14 01:16:35;;;;;;;65.28;32.35;;;-4.90;99.90;;;;;;6217906;23;20016;-79
2022/12/14 01:19:12;;;;;;;63.35;31.42;;;-5.00;99.90;;;;;;6217447;23;20051;-80
2022/12/14 01:21:37;;;;;;;61.58;31.13;;;-4.90;99.90;;;;;;6198309;23;20020;-76
2022/12/14 01:24:05;;;;;;;63.88;30.60;;;-5.10;99.90;;;;;;6220863;23;20036;-78
2022/12/14 01:26:35;;;;;;;58.33;29.77;;;-5.00;99.90;;;;;;6198997;23;20028;-76
2022/12/14 01:29:01;;;;;;;65.70;31.35;;;-5.10;99.90;;;;;;6220791;23;20027;-76
2022/12/14 01:31:29;;;;;;;68.63;32.45;;;-5.10;99.90;;;;;;6225062;23;20389;-76
2022/12/14 01:34:10;;;;;;;61.13;31.90;;;-5.10;99.90;;;;;;6222967;23;20009;-75
2022/12/14 01:36:38;;;;;;;64.32;30.30;;;-5.00;99.90;;;;;;6197855;23;20024;-78
2022/12/14 01:39:12;;;;;;;61.03;31.15;;;-5.30;99.90;;;;;;6217852;23;20074;-80
2022/12/14 01:41:51;;;;;;;61.90;30.48;;;-5.30;99.90;;;;;;6219678;23;20024;-78
2022/12/14 01:44:16;;;;;;;64.72;30.95;;;-5.40;99.90;;;;;;6196363;23;20107;-78
2022/12/14 01:46:55;;;;;;;61.45;30.70;;;-5.50;99.90;;;;;;6196750;23;20748;-77
2022/12/14 01:49:47;;;;;;;66.65;31.90;;;-5.50;99.90;;;;;;6212221;23;20044;-80
2022/12/14 01:52:32;;;;;;;62.25;30.95;;;-5.50;99.90;;;;;;6186440;23;20009;-80
2022/12/14 01:55:10;;;;;;;58.17;29.67;;;-5.60;99.90;;;;;;6204807;23;20092;-77
2022/12/14 01:57:53;;;;;;;67.35;31.58;;;-5.30;99.90;;;;;;6186847;23;20052;-79
2022/12/14 02:00:19;;;;;;;62.83;31.85;;;-5.50;99.90;;;;;;6187465;23;20114;-80
2022/12/14 02:02:58;;;;;;;63.38;30.58;;;-5.50;99.90;;;;;;6212991;23;20020;-79
2022/12/14 02:05:24;;;;;;;63.83;29.95;;;-5.70;99.90;;;;;;6188009;23;20114;-80
2022/12/14 02:07:53;;;;;;;58.95;29.65;;;-5.70;99.90;;;;;;6187185;23;20459;-79
2022/12/14 02:10:21;;;;;;;62.03;30.45;;;-5.80;99.90;;;;;;6189617;23;20008;-78
2022/12/14 02:13:04;;;;;;;60.38;29.10;;;-5.70;99.90;;;;;;6191798;23;20019;-81
2022/12/14 02:15:32;;;;;;;56.92;28.92;;;-5.80;99.90;;;;;;6215042;23;20322;-78
2022/12/14 02:18:01;;;;;;;57.85;28.55;;;-5.70;99.90;;;;;;6214760;23;20098;-79
2022/12/14 02:20:36;;;;;;;58.72;29.23;;;-5.90;99.90;;;;;;6163008;23;20015;-81
2022/12/14 02:23:26;;;;;;;58.78;28.73;;;-5.90;99.90;;;;;;6188405;23;20012;-79
2022/12/14 02:26:22;;;;;;;58.88;29.33;;;-5.80;99.90;;;;;;6215077;23;20043;-81
2022/12/14 02:28:57;;;;;;;56.97;28.48;;;-5.80;99.90;;;;;;6212990;23;20039;-79
2022/12/14 02:31:44;;;;;;;59.35;29.08;;;-6.00;99.90;;;;;;6188970;23;20008;-79
2022/12/14 02:34:31;;;;;;;62.08;28.35;;;-5.90;99.90;;;;;;6187884;23;20040;-82
2022/12/14 02:37:01;;;;;;;55.90;28.15;;;-5.90;99.90;;;;;;6212428;23;20012;-79
2022/12/14 02:39:42;;;;;;;56.53;27.10;;;-6.20;99.90;;;;;;6209887;23;20425;-83
2022/12/14 02:42:12;;;;;;;56.95;28.10;;;-6.00;99.90;;;;;;6212684;23;20155;-79
2022/12/14 02:45:04;;;;;;;67.40;29.63;;;-6.20;99.90;;;;;;6188179;23;20374;-79
2022/12/14 02:47:47;;;;;;;62.25;28.75;;;-6.20;99.90;;;;;;6213288;23;20024;-77
2022/12/14 02:50:24;;;;;;;61.67;28.45;;;-6.30;99.90;;;;;;6192659;23;20051;-77
2022/12/14 02:53:07;;;;;;;57.45;28.40;;;-6.30;99.90;;;;;;6193440;23;20339;-79
2022/12/14 02:55:39;;;;;;;60.08;28.70;;;-6.20;99.90;;;;;;6187738;23;20385;-79
2022/12/14 02:58:07;;;;;;;58.97;28.88;;;-6.30;99.90;;;;;;6187486;23;20122;-80
2022/12/14 03:00:36;;;;;;;54.78;27.98;;;-6.30;99.90;;;;;;6186771;23;20012;-78
2022/12/14 03:03:04;;;;;;;58.40;27.70;;;-6.30;99.90;;;;;;6164066;23;20019;-81
2022/12/14 03:05:30;;;;;;;63.08;29.02;;;-6.20;99.90;;;;;;6214367;23;20016;-80
2022/12/14 03:08:15;;;;;;;58.95;28.10;;;-6.20;99.90;;;;;;6186903;23;20069;-80
2022/12/14 03:10:55;;;;;;;61.28;29.23;;;-6.40;99.90;;;;;;6162271;23;20004;-83
2022/12/14 03:13:26;;;;;;;59.75;29.25;;;-6.50;99.90;;;;;;6217566;23;20067;-79
2022/12/14 03:16:00;;;;;;;65.15;30.02;;;-6.50;99.90;;;;;;6189295;23;20051;-79
2022/12/14 03:18:31;;;;;;;60.03;29.95;;;-6.40;99.90;;;;;;6212190;23;20043;-78
2022/12/14 03:20:59;;;;;;;62.15;28.70;;;-6.40;99.90;;;;;;6160448;23;20020;-80
2022/12/14 03:23:31;;;;;;;57.58;28.65;;;-6.40;99.90;;;;;;6182651;23;20021;-81
2022/12/14 03:26:07;;;;;;;61.63;30.00;;;-6.50;99.90;;;;;;6186067;23;20020;-79
2022/12/14 03:29:17;;;;;;;66.13;31.38;;;-6.50;99.90;;;;;;6160515;23;20021;-81
2022/12/14 03:31:50;;;;;;;59.38;29.08;;;-6.50;99.90;;;;;;6021547;23;20023;-78
2022/12/14 03:34:18;;;;;;;60.22;28.65;;;-6.60;99.90;;;;;;6046979;23;20473;-78
2022/12/14 03:36:55;;;;;;;57.38;29.38;;;-6.70;99.90;;;;;;6061974;23;20053;-79
2022/12/14 03:39:27;;;;;;;57.55;28.35;;;-6.70;99.90;;;;;;6013089;23;20447;-80
2022/12/14 03:42:19;;;;;;;61.05;28.98;;;-6.60;99.90;;;;;;6014522;23;20057;-79
2022/12/14 03:45:08;;;;;;;59.15;30.48;;;-6.80;99.90;;;;;;6037933;23;20033;-82
2022/12/14 03:47:47;;;;;;;66.22;30.60;;;-6.80;99.90;;;;;;5958967;23;20026;-80
2022/12/14 03:50:26;;;;;;;58.70;28.60;;;-6.60;99.90;;;;;;5958792;23;20099;-83
2022/12/14 03:52:55;;;;;;;60.08;29.27;;;-6.60;99.90;;;;;;6006153;23;20012;-78
2022/12/14 03:55:46;;;;;;;67.82;30.67;;;-6.70;99.90;;;;;;5959849;23;20143;-80
2022/12/14 03:58:24;;;;;;;60.80;28.60;;;-6.70;99.90;;;;;;6029605;23;20020;-79
2022/12/14 04:01:26;;;;;;;60.47;28.50;;;-6.80;99.90;;;;;;5958124;23;20322;-80
2022/12/14 04:04:02;;;;;;;57.47;28.95;;;-6.80;99.90;;;;;;6089263;23;20014;-79
2022/12/14 04:06:36;;;;;;;68.57;31.13;;;-6.90;99.90;;;;;;6065868;23;20041;-79
2022/12/14 04:09:21;;;;;;;59.22;28.13;;;-6.80;99.90;;;;;;6065438;23;20021;-80
2022/12/14 04:20:28;;;;;;;57.17;27.90;;;-6.80;99.90;;;;;;6067887;23;20052;-82
2022/12/14 04:23:08;;;;;;;65.10;28.00;;;-6.80;99.90;;;;;;6069160;23;20014;-81
2022/12/14 04:31:18;;;;;;;56.28;26.55;;;-6.90;99.90;;;;;;6186456;23;20020;-81
2022/12/14 04:33:50;;;;;;;55.97;25.50;;;-6.80;99.90;;;;;;6159992;23;20019;-79
2022/12/14 04:36:39;;;;;;;57.55;28.45;;;-6.90;99.90;;;;;;6186187;23;20025;-79
2022/12/14 04:39:14;;;;;;;60.22;28.40;;;-7.00;99.90;;;;;;6184569;23;20484;-83
2022/12/14 04:41:44;;;;;;;62.08;28.33;;;-6.90;99.90;;;;;;6161664;23;20017;-81
2022/12/14 04:44:34;;;;;;;57.65;28.60;;;-6.80;99.90;;;;;;6135609;23;20043;-79
2022/12/14 04:47:02;;;;;;;57.58;27.98;;;-6.90;99.90;;;;;;6183898;23;20106;-77
2022/12/14 04:49:34;;;;;;;62.35;27.27;;;-7.10;99.90;;;;;;6183958;23;20337;-79
2022/12/14 04:52:19;;;;;;;58.38;28.90;;;-7.00;99.90;;;;;;6185728;23;20043;-77
2022/12/14 04:54:47;;;;;;;56.67;27.30;;;-7.00;99.90;;;;;;6196278;23;20017;-78
2022/12/14 04:57:32;;;;;;;58.45;27.67;;;-6.90;99.90;;;;;;6211639;23;20612;-78
2022/12/14 04:59:59;;;;;;;57.35;27.42;;;-7.00;99.90;;;;;;6209884;23;20021;-80
2022/12/14 05:02:45;;;;;;;61.97;27.85;;;-7.00;99.90;;;;;;6187131;23;20017;-77
2022/12/14 05:05:29;;;;;;;57.83;27.05;;;-7.10;99.90;;;;;;6188411;23;20217;-78
2022/12/14 05:08:07;;;;;;;59.10;27.05;;;-7.00;99.90;;;;;;6188799;23;20012;-80
2022/12/14 05:10:40;;;;;;;65.10;28.50;;;-7.00;99.90;;;;;;6213170;23;20111;-78
2022/12/14 05:13:39;;;;;;;58.42;27.48;;;-7.00;99.90;;;;;;6213235;23;20044;-81
2022/12/14 05:16:09;;;;;;;60.45;26.73;;;-7.20;99.90;;;;;;6214996;23;20031;-78
2022/12/14 05:18:35;;;;;;;57.90;26.67;;;-7.20;99.90;;;;;;6189797;23;20086;-78
2022/12/14 05:21:00;;;;;;;54.28;25.50;;;-7.20;99.90;;;;;;6214473;23;20016;-80
2022/12/14 05:23:27;;;;;;;59.28;27.13;;;-7.20;99.90;;;;;;6214195;23;20455;-77
2022/12/14 05:25:53;;;;;;;57.88;26.13;;;-7.20;99.90;;;;;;6215772;23;20024;-79
2022/12/14 05:28:19;;;;;;;57.92;26.45;;;-7.10;99.90;;;;;;6188389;23;20016;-78
2022/12/14 05:30:44;;;;;;;56.60;26.63;;;-7.10;99.90;;;;;;6188652;23;20009;-79
2022/12/14 05:33:20;;;;;;;53.65;25.20;;;-7.30;99.90;;;;;;6214228;23;20047;-81
2022/12/14 05:35:46;;;;;;;55.75;26.25;;;-7.30;99.90;;;;;;6214742;23;20031;-76
2022/12/14 05:38:12;;;;;;;61.88;28.50;;;-7.20;99.90;;;;;;6189175;23;20012;-78
2022/12/14 05:40:38;;;;;;;54.83;25.08;;;-7.10;99.90;;;;;;6211736;23;20029;-79
2022/12/14 05:43:05;;;;;;;53.28;25.88;;;-7.20;99.90;;;;;;6213155;23;20052;-81
2022/12/14 05:45:31;;;;;;;58.17;26.88;;;-7.20;99.90;;;;;;6188231;23;20016;-80
2022/12/14 05:47:56;;;;;;;54.80;27.08;;;-7.20;99.90;;;;;;6213224;23;20021;-79
2022/12/14 05:50:24;;;;;;;58.72;27.60;;;-7.30;99.90;;;;;;6187913;23;20045;-82
2022/12/14 05:52:54;;;;;;;55.30;26.05;;;-7.40;99.90;;;;;;6188694;23;20159;-84
2022/12/14 05:55:20;;;;;;;60.45;27.77;;;-7.40;99.90;;;;;;6213206;23;20043;-80
2022/12/14 05:57:46;;;;;;;53.80;26.73;;;-7.30;99.90;;;;;;6190266;23;20070;-81
2022/12/14 06:00:13;;;;;;;58.40;27.08;;;-7.30;99.90;;;;;;6188554;23;20387;-79
2022/12/14 06:02:38;;;;;;;62.00;27.33;;;-7.30;99.90;;;;;;6216032;23;20040;-79
2022/12/14 06:05:04;;;;;;;63.60;27.92;;;-7.40;99.90;;;;;;6216386;23;20015;-77
2022/12/14 06:07:30;;;;;;;60.25;26.65;;;-7.50;99.90;;;;;;6164387;23;20039;-76
2022/12/14 06:09:56;;;;;;;63.00;27.33;;;-7.40;99.90;;;;;;6212368;23;20630;-78
2022/12/14 06:12:21;;;;;;;59.08;25.80;;;-7.40;99.90;;;;;;6187481;23;20020;-78
2022/12/14 06:14:47;;;;;;;56.72;26.60;;;-7.50;99.90;;;;;;6187106;23;20075;-78
2022/12/14 06:17:13;;;;;;;53.47;25.77;;;-7.50;99.90;;;;;;6187875;23;20008;-80
2022/12/14 06:23:19;;;;;;;57.65;26.15;;;-7.40;99.90;;;;;;6214226;23;20139;-79
2022/12/14 06:25:55;;;;;;;58.65;26.30;;;-7.50;99.90;;;;;;6188440;23;20055;-79
2022/12/14 06:28:22;;;;;;;55.95;25.63;;;-7.60;99.90;;;;;;6213246;23;20043;-80
2022/12/14 06:30:48;;;;;;;57.20;25.65;;;-7.40;99.90;;;;;;6186595;23;20389;-78
2022/12/14 06:33:14;;;;;;;58.13;26.08;;;-7.50;99.90;;;;;;6186704;23;20482;-78
2022/12/14 06:35:44;;;;;;;57.13;26.00;;;-7.40;99.90;;;;;;6186967;23;20028;-79
2022/12/14 06:38:11;;;;;;;58.85;26.60;;;-7.40;99.90;;;;;;6187242;23;20020;-77
2022/12/14 06:40:36;;;;;;;61.60;26.45;;;-7.50;99.90;;;;;;6186848;23;20336;-80
2022/12/14 06:43:04;;;;;;;55.58;25.15;;;-7.50;99.90;;;;;;6187735;23;20012;-76
2022/12/14 06:45:30;;;;;;;53.90;25.98;;;-7.70;99.90;;;;;;6212541;23;20443;-81
2022/12/14 06:47:55;;;;;;;51.97;24.95;;;-7.70;99.90;;;;;;6209754;23;20021;-80
2022/12/14 06:50:21;;;;;;;53.72;25.05;;;-7.60;99.90;;;;;;6212718;23;20013;-80
2022/12/14 06:52:49;;;;;;;53.80;25.30;;;-7.60;99.90;;;;;;6211963;23;20047;-82
2022/12/14 06:55:15;;;;;;;54.70;26.08;;;-7.60;99.90;;;;;;6186382;23;20028;-77
2022/12/14 06:57:41;;;;;;;51.10;25.73;;;-7.70;99.90;;;;;;6187788;23;20108;-77
2022/12/14 07:00:23;;;;;;;54.58;26.05;;;-7.80;99.90;;;;;;6214278;23;20459;-79
2022/12/14 07:02:50;;;;;;;61.55;26.90;;;-7.60;99.90;;;;;;6187326;23;20044;-79
2022/12/14 07:05:15;;;;;;;61.47;27.60;;;-7.70;99.90;;;;;;6220606;23;20078;-77
2022/12/14 07:07:42;;;;;;;66.65;28.95;;;-7.70;99.90;;;;;;6188778;23;20020;-78
2022/12/14 07:10:09;;;;;;;65.00;29.27;;;-7.70;99.90;;;;;;6210236;23;20040;-76
2022/12/14 07:12:35;;;;;;;64.35;28.48;;;-7.60;99.90;;;;;;6186234;23;20506;-79
2022/12/14 07:15:01;;;;;;;64.55;30.50;;;-7.50;99.90;;;;;;6209508;23;20016;-80
2022/12/14 07:17:26;;;;;;;68.90;31.17;;;-7.70;99.90;;;;;;6183304;23;20020;-81
2022/12/14 07:19:52;;;;;;;65.15;30.63;;;-7.70;99.90;;;;;;6209643;23;20125;-80
2022/12/14 07:22:18;;;;;;;68.07;31.42;;;-7.70;99.90;;;;;;6187383;23;20451;-80
2022/12/14 07:24:44;;;;;;;73.45;32.20;;;-7.70;99.90;;;;;;6186328;23;20020;-78
2022/12/14 07:27:10;;;;;;;73.28;30.88;;;-7.70;99.90;;;;;;6209701;23;20074;-80
2022/12/14 07:29:37;;;;;;;68.38;31.05;;;-7.70;99.90;;;;;;6182157;23;20020;-80
2022/12/14 07:32:04;;;;;;;71.47;31.02;;;-7.60;99.90;;;;;;6186955;23;20019;-81
2022/12/14 07:34:29;;;;;;;70.53;31.25;;;-7.80;99.90;;;;;;6186887;23;20009;-76
2022/12/14 07:37:14;;;;;;;66.65;30.35;;;-7.70;99.90;;;;;;6190312;23;20024;-78
2022/12/14 07:39:41;;;;;;;64.90;30.48;;;-7.80;99.90;;;;;;6187213;23;20040;-80
2022/12/14 07:42:07;;;;;;;71.18;32.05;;;-7.70;99.90;;;;;;6183756;23;20024;-81
2022/12/14 07:44:33;;;;;;;70.05;31.83;;;-7.90;99.90;;;;;;6212467;23;20029;-76
2022/12/14 07:46:59;;;;;;;68.72;31.02;;;-7.70;99.90;;;;;;6212216;23;20298;-80
2022/12/14 07:49:25;;;;;;;65.40;29.42;;;-7.70;99.90;;;;;;6188685;23;20091;-76
2022/12/14 07:55:15;;;;;;;70.15;30.55;;;-7.80;99.90;;;;;;6213246;23;20036;-77
2022/12/14 07:57:41;;;;;;;63.38;29.10;;;-7.70;99.90;;;;;;6189086;23;20093;-78
2022/12/14 08:00:07;;;;;;;67.43;28.45;;;-7.60;99.90;;;;;;6213378;23;20023;-78
2022/12/14 08:02:33;;;;;;;64.50;29.25;;;-7.80;99.90;;;;;;6210195;23;20269;-83
2022/12/14 08:04:59;;;;;;;71.10;29.60;;;-7.80;99.90;;;;;;6186115;23;20012;-80
2022/12/14 08:07:26;;;;;;;70.00;30.13;;;-7.60;99.90;;;;;;6211001;23;20013;-78
2022/12/14 08:09:52;;;;;;;62.15;28.15;;;-7.70;99.90;;;;;;6209127;23;20140;-83
2022/12/14 08:12:18;;;;;;;66.47;30.13;;;-7.70;99.90;;;;;;6211979;23;20016;-80
2022/12/14 08:14:43;;;;;;;65.78;30.45;;;-7.70;99.90;;;;;;6212032;23;20059;-80
2022/12/14 08:17:09;;;;;;;68.15;31.42;;;-7.40;99.90;;;;;;6208697;23;20013;-81
2022/12/14 08:19:35;;;;;;;74.20;31.17;;;-7.60;99.90;;;;;;6182826;23;20016;-81
2022/12/14 08:22:06;;;;;;;68.00;29.80;;;-7.40;99.90;;;;;;6210602;23;20437;-78
2022/12/14 08:24:33;;;;;;;64.32;29.75;;;-7.30;99.90;;;;;;6184657;23;20023;-78
2022/12/14 08:26:59;;;;;;;66.30;29.98;;;-7.40;99.90;;;;;;6210283;23;20095;-78
2022/12/14 08:29:24;;;;;;;66.30;29.58;;;-7.30;99.90;;;;;;6211365;23;20102;-78
2022/12/14 08:31:53;;;;;;;72.10;30.17;;;-7.20;99.90;;;;;;6210159;23;20013;-78
2022/12/14 08:34:21;;;;;;;69.90;29.67;;;-7.30;99.90;;;;;;6186202;23;20020;-79
2022/12/14 08:36:47;;;;;;;67.20;29.77;;;-7.10;99.90;;;;;;6186277;23;20025;-82
2022/12/14 08:39:14;;;;;;;60.92;28.73;;;-7.20;99.90;;;;;;6212214;23;20020;-79
2022/12/14 08:41:40;;;;;;;62.17;28.27;;;-7.10;99.90;;;;;;6187918;23;20021;-78
2022/12/14 08:44:08;;;;;;;64.40;29.20;;;-7.00;99.90;;;;;;6186992;23;20035;-79
2022/12/14 08:46:36;;;;;;;64.32;27.95;;;-6.90;99.90;;;;;;6213138;23;20095;-80
2022/12/14 08:49:04;;;;;;;62.40;28.77;;;-6.90;99.90;;;;;;6187526;23;20013;-76
2022/12/14 08:51:30;;;;;;;60.72;27.75;;;-6.90;99.90;;;;;;6187174;23;20019;-77
2022/12/14 08:53:58;;;;;;;58.97;26.63;;;-6.90;99.90;;;;;;6210864;23;20103;-79
2022/12/14 08:56:26;;;;;;;58.17;26.00;;;-6.70;99.90;;;;;;6213219;23;20055;-81
2022/12/14 08:58:52;;;;;;;62.05;26.30;;;-6.70;99.90;;;;;;6213689;23;20035;-83
2022/12/14 09:01:23;;;;;;;60.22;27.02;;;-6.60;99.90;;;;;;6216127;23;20051;-79
2022/12/14 09:03:49;;;;;;;58.67;26.88;;;-6.50;99.90;;;;;;6221788;23;20440;-80
2022/12/14 09:06:19;;;;;;;60.97;26.77;;;-6.40;99.90;;;;;;6215892;23;20013;-77
2022/12/14 09:08:46;;;;;;;63.47;27.23;;;-6.40;99.90;;;;;;6211509;23;20017;-78
2022/12/14 09:11:14;;;;;;;67.38;29.67;;;-6.30;99.90;;;;;;6211664;23;20012;-79
2022/12/14 09:13:40;;;;;;;61.10;28.50;;;-6.20;99.90;;;;;;6186378;23;20023;-80
2022/12/14 09:16:17;;;;;;;71.18;31.45;;;-6.20;99.90;;;;;;6210853;23;20017;-79
2022/12/14 09:18:44;;;;;;;71.30;31.23;;;-6.10;99.90;;;;;;6210719;23;20112;-81
2022/12/14 09:21:50;;;;;;;70.00;31.08;;;-6.20;99.90;;;;;;6212430;23;20044;-79
2022/12/14 09:24:16;;;;;;;71.65;30.38;;;-6.00;99.90;;;;;;6209670;23;20100;-80
2022/12/14 09:26:41;;;;;;;66.30;29.80;;;-6.00;99.90;;;;;;6183963;23;20044;-79
2022/12/14 09:29:13;;;;;;;66.10;30.00;;;-6.10;99.90;;;;;;6185369;23;20021;-80
2022/12/14 09:31:39;;;;;;;64.00;29.55;;;-6.00;99.90;;;;;;6184406;23;20070;-79
2022/12/14 09:34:05;;;;;;;67.57;30.35;;;-5.90;99.90;;;;;;6184791;23;20745;-79
2022/12/14 09:36:31;;;;;;;63.13;29.77;;;-5.90;99.90;;;;;;6184200;23;20013;-78
2022/12/14 09:38:58;;;;;;;61.15;28.05;;;-5.80;99.90;;;;;;6209064;23;20432;-79
2022/12/14 09:41:33;;;;;;;57.83;27.08;;;-5.70;99.90;;;;;;6187243;23;20020;-78
2022/12/14 09:44:25;;;;;;;61.80;27.40;;;-5.50;99.90;;;;;;6209624;23;20028;-79
2022/12/14 09:47:00;;;;;;;58.90;26.83;;;-5.50;99.90;;;;;;6177816;23;20099;-78
2022/12/14 09:49:44;;;;;;;;;;;-5.50;99.90;;;;;;6208450;23;20012;-78
2022/12/14 09:52:21;;;;;;;60.17;26.08;;;-5.30;99.90;;;;;;6184030;23;20018;-80
2022/12/14 09:54:48;;;;;;;57.42;24.70;;;-5.30;99.90;;;;;;6208510;23;20024;-79
2022/12/14 09:57:28;;;;;;;60.83;26.20;;;-5.20;99.90;;;;;;6184926;23;20021;-76
2022/12/14 09:59:54;;;;;;;59.05;26.73;;;-5.10;99.90;;;;;;6186591;23;20016;-76
2022/12/14 10:02:46;;;;;;;57.78;25.92;;;-5.20;99.90;;;;;;6206925;23;20017;-78
2022/12/14 10:05:38;;;;;;;54.08;25.63;;;-5.00;99.90;;;;;;6210171;23;20059;-80
2022/12/14 10:08:13;;;;;;;54.17;25.77;;;-4.80;99.90;;;;;;6209010;23;20055;-80
2022/12/14 10:11:14;;;;;;;56.42;26.27;;;-4.90;99.90;;;;;;6182707;23;20012;-81
2022/12/14 10:13:42;;;;;;;56.78;26.05;;;-4.60;99.90;;;;;;6210660;23;20312;-80
2022/12/14 10:16:26;;;;;;;52.25;24.70;;;-4.60;99.90;;;;;;6188572;23;20500;-81
2022/12/14 10:19:04;;;;;;;48.60;23.02;;;-4.60;99.90;;;;;;6212686;23;20067;-79
2022/12/14 10:21:43;;;;;;;52.90;25.55;;;-4.40;99.90;;;;;;6213857;23;20017;-79
2022/12/14 10:24:15;;;;;;;52.70;25.50;;;-4.30;99.90;;;;;;6213980;23;20026;-80
2022/12/14 10:26:50;;;;;;;51.42;24.60;;;-4.50;99.90;;;;;;6217406;23;20059;-80
2022/12/14 10:29:50;;;;;;;53.15;25.25;;;-4.40;99.90;;;;;;6214153;23;20026;-79
2022/12/14 10:32:20;;;;;;;56.65;25.30;;;-4.20;99.90;;;;;;6213276;23;20017;-79
2022/12/14 10:34:47;;;;;;;58.33;27.17;;;-4.10;99.90;;;;;;6187383;23;20019;-81
2022/12/14 10:37:25;;;;;;;57.10;25.65;;;-4.20;99.90;;;;;;6211895;23;20013;-79
2022/12/14 10:40:07;;;;;;;50.70;23.23;;;-4.20;99.90;;;;;;6186835;23;20020;-80
2022/12/14 10:42:46;;;;;;;48.05;23.35;;;-4.20;99.90;;;;;;6188395;23;20123;-80
2022/12/14 10:45:27;;;;;;;62.20;30.58;;;-3.80;99.90;;;;;;6213988;23;20017;-81
2022/12/14 10:48:23;;;;;;;57.17;27.75;;;-4.00;99.90;;;;;;6187888;23;20013;-79
2022/12/14 10:54:42;;;;;;;50.33;25.88;;;-3.90;99.90;;;;;;6081612;23;20122;-79
2022/12/14 10:57:11;;;;;;;100.45;47.53;;;-3.70;99.90;;;;;;6041744;23;20033;-81
2022/12/14 10:59:37;;;;;;;82.07;38.95;;;-3.70;99.90;;;;;;6040915;23;20018;-80
2022/12/14 11:02:26;;;;;;;62.05;31.08;;;-3.70;99.90;;;;;;6016415;23;20030;-79
2022/12/14 11:05:00;;;;;;;78.72;39.00;;;-3.60;99.90;;;;;;6065223;23;20086;-81
2022/12/14 11:07:32;;;;;;;61.42;29.25;;;-3.50;99.90;;;;;;6016510;23;20014;-80
2022/12/14 11:10:18;;;;;;;66.80;33.03;;;-3.60;99.90;;;;;;6041302;23;20105;-81
2022/12/14 11:12:56;;;;;;;54.38;29.75;;;-3.50;99.90;;;;;;6041746;23;20371;-79
2022/12/14 11:15:33;;;;;;;50.78;24.23;;;-3.50;99.90;;;;;;6065219;23;20331;-81
2022/12/14 11:18:03;;;;;;;41.92;22.98;;;-3.40;99.90;;;;;;6063975;23;20260;-81
2022/12/14 11:20:30;;;;;;;51.97;26.20;;;-3.30;99.90;;;;;;6018246;23;20089;-80
2022/12/14 11:23:20;;;;;;;48.92;23.98;;;-3.30;99.90;;;;;;6016739;23;20758;-78
2022/12/14 11:25:49;;;;;;;45.78;22.98;;;-3.30;99.90;;;;;;6035427;23;20022;-80
2022/12/14 11:28:29;;;;;;;41.60;20.17;;;-3.20;99.90;;;;;;6173552;23;20435;-80
2022/12/14 11:30:58;;;;;;;42.20;21.35;;;-3.00;99.90;;;;;;6184371;23;20110;-81
2022/12/14 11:33:31;;;;;;;44.40;20.98;;;-3.10;99.90;;;;;;6158455;23;20384;-82
2022/12/14 11:36:36;;;;;;;44.78;23.50;;;-2.90;99.90;;;;;;6185891;23;20437;-80
2022/12/14 11:39:19;;;;;;;43.70;21.80;;;-2.90;99.90;;;;;;6064034;23;20018;-79
2022/12/14 11:42:13;;;;;;;42.60;21.17;;;-2.80;99.90;;;;;;6089056;23;20018;-78
2022/12/14 11:44:39;;;;;;;36.97;19.05;;;-2.80;99.90;;;;;;6087889;23;20022;-80
2022/12/14 11:47:12;;;;;;;40.65;20.05;;;-2.80;99.90;;;;;;6063640;23;20078;-79
2022/12/14 11:49:38;;;;;;;40.17;19.77;;;-2.70;99.90;;;;;;6067765;23;20050;-80
2022/12/14 11:52:03;;;;;;;39.63;18.88;;;-2.60;99.90;;;;;;6069434;23;20022;-78
2022/12/14 11:54:37;;;;;;;36.38;17.60;;;-2.60;99.90;;;;;;6106404;23;20089;-80
2022/12/14 11:57:26;;;;;;;37.40;18.33;;;-2.60;99.90;;;;;;6101784;23;20026;-78
2022/12/14 11:59:53;;;;;;;41.70;21.90;;;-2.50;99.90;;;;;;6087924;23;20327;-79
2022/12/14 12:02:25;;;;;;;42.38;22.38;;;-2.50;99.90;;;;;;6120454;23;20026;-78
2022/12/14 12:05:12;;;;;;;50.65;29.02;;;-2.50;99.90;;;;;;6093355;23;20327;-82
2022/12/14 12:07:54;;;;;;;36.13;18.83;;;-2.30;99.90;;;;;;6095402;23;20025;-80
2022/12/14 12:10:21;;;;;;;47.85;27.45;;;-2.50;99.90;;;;;;6160827;23;20025;-78
2022/12/14 12:12:53;;;;;;;33.40;18.25;;;-2.40;99.90;;;;;;6185185;23;20303;-78
2022/12/14 12:15:40;;;;;;;42.10;23.75;;;-2.40;99.90;;;;;;6211735;23;20008;-81
2022/12/14 12:18:17;;;;;;;48.65;30.85;;;-2.40;99.90;;;;;;6184215;23;20373;-77
2022/12/14 12:20:53;;;;;;;35.45;21.52;;;-2.30;99.90;;;;;;6157033;23;20031;-81
2022/12/14 12:23:28;;;;;;;36.25;22.30;;;-2.30;99.90;;;;;;6152653;23;20429;-81
2022/12/14 12:25:55;;;;;;;30.00;17.65;;;-2.20;99.90;;;;;;6186193;23;20016;-80
2022/12/14 12:28:28;;;;;;;48.42;29.23;;;-2.20;99.90;;;;;;6161205;23;20452;-80
2022/12/14 12:30:59;;;;;;;47.83;29.20;;;-2.10;99.90;;;;;;6186693;23;20391;-81
2022/12/14 12:33:36;;;;;;;54.97;35.20;;;-2.20;99.90;;;;;;6187783;23;20021;-80
2022/12/14 12:39:49;;;;;;;49.55;27.50;;;-2.10;99.90;;;;;;6214122;23;20499;-79
2022/12/14 12:42:31;;;;;;;33.80;18.77;;;-2.20;99.90;;;;;;6162770;23;20091;-80
2022/12/14 12:45:25;;;;;;;54.10;29.50;;;-2.10;99.90;;;;;;6215001;23;20352;-79
2022/12/14 12:48:02;;;;;;;31.42;17.73;;;-2.10;99.90;;;;;;6164957;23;20024;-78
2022/12/14 12:50:32;;;;;;;33.63;18.13;;;-2.10;99.90;;;;;;6187219;23;20328;-82
2022/12/14 12:53:04;;;;;;;31.48;16.40;;;-2.10;99.90;;;;;;6186632;23;20031;-82
2022/12/14 12:55:36;;;;;;;36.45;18.60;;;-2.00;99.90;;;;;;6206039;23;20016;-80
2022/12/14 12:58:08;;;;;;;37.17;21.17;;;-2.00;99.90;;;;;;6216497;23;20443;-80
2022/12/14 13:00:36;;;;;;;33.50;17.95;;;-2.10;99.90;;;;;;6190004;23;20016;-82
2022/12/14 13:03:36;;;;;;;64.78;41.50;;;-2.10;99.90;;;;;;6215226;23;20012;-79
2022/12/14 13:06:23;;;;;;;42.40;23.40;;;-2.10;99.90;;;;;;6149727;23;20012;-81
2022/12/14 13:08:55;;;;;;;36.05;19.45;;;-2.10;99.90;;;;;;6189649;23;20012;-78
2022/12/14 13:11:37;;;;;;;40.10;24.02;;;-2.00;99.90;;;;;;6216968;23;20038;-81
2022/12/14 13:14:16;;;;;;;52.50;29.55;;;-2.10;99.90;;;;;;6215774;23;20039;-80
2022/12/14 13:16:44;;;;;;;49.60;28.70;;;-2.10;99.90;;;;;;6191783;23;20016;-80
2022/12/14 13:19:21;;;;;;;43.67;25.00;;;-2.00;99.90;;;;;;6217625;23;20023;-79
2022/12/14 13:21:50;;;;;;;35.75;21.98;;;-1.90;99.90;;;;;;6246132;23;20008;-80
2022/12/14 13:24:18;;;;;;;60.08;35.65;;;-1.90;99.90;;;;;;6218146;23;20440;-79
2022/12/14 13:27:05;;;;;;;66.57;34.28;;;-2.00;99.90;;;;;;6193723;23;20020;-79